Tiempo atmosférico en la estación meteorológica de Briviesca, Burgos (730 m.)



Fecha
DESCASC
Temp. máxima en grados centígrados (hora)
DESCASC
Temp. mínima en grados centígrados (hora)
DESCASC
Temp. media en grados centígrados
DESCASC
Racha de viento máxima en m/sg (hora)
DESCASC
Velocidad máxima media en intervalos de 10 minutos(hora)
DESCASC
Precipitaciones diarias en mm
DESCASC
Precipitaciones de 00:00 a 06:00 en mm
DESCASC
Precipitaciones de 06:00 a 12:00 en mm
DESCASC
Precipitaciones de 12:00 a 18:00 en mm
DESCASC
Precipitaciones de 18:00 a 24:00 en mm
DESCASC
05-04-2020 15.5 (16:00) 5.9 (07:40) 10.7 11.67 (17:30) 7.5 (17:30) 0 0 0 0 0
04-04-2020 15.9 (17:30) -1.1 (07:50) 7.4 10.83 (17:20) 7.5 (17:20) 0 0 0 0 0
03-04-2020 13.4 (17:40) -0.7 (07:50) 6.3 5.56 (12:10) 3.89 (05:10) 0 0 0 0 0
02-04-2020 11.1 (17:50) 2.3 (00:00) 6.7 9.72 (19:00) 6.11 (19:00) 2.2 1.4 0.8 0 0
01-04-2020 9.7 (16:50) 4.3 (00:00) 7 12.5 (04:00) 7.78 (04:00) 2 0 1.6 0 0.4
31-03-2020 4.7 (18:30) -1.1 (-00:0) 1.8 15.56 (17:30) 9.72 (17:00) 0.2 0 0 0 0.2
30-03-2020 5 (16:20) -1 (-00:0) 2 8.61 (11:00) 6.11 (12:10) 0 0 0 0 0
29-03-2020 12.7 (16:00) -0.6 (-00:0) 6 9.72 (18:10) 6.67 (18:10) 0 0 0 0 0
28-03-2020 15.6 (16:40) -1.4 (-00:0) 7.1 5.56 (20:50) 4.44 (20:50) 0 0 0 0 0
27-03-2020 11.2 (16:30) -2.8 (-00:0) 4.2 8.89 (15:00) 5.83 (15:00) 0 0 0 0 0
26-03-2020 8.7 (15:10) 0.2 (00:00) 4.4 10 (14:10) 6.67 (15:40) 0 0 0 0 0
25-03-2020 15.1 (15:00) 1.7 (00:00) 8.4 7.78 (15:40) 5 (16:50) 0 0 0 0 0
24-03-2020 13.8 (16:10) 5.3 (00:00) 9.6 10 (14:20) 6.39 (16:30) 0 0 0 0 0
23-03-2020 13.5 (16:40) 6.4 (00:00) 10 11.39 (15:00) 8.33 (15:00) 0 0 0 0 0
22-03-2020 15.1 (16:30) 2.7 (07:40) 8.9 10 (16:50) 6.67 (16:50) 0 0 0 0 0
21-03-2020 13.3 (17:10) 5 (00:00) 9.2 8.89 (08:30) 4.72 (11:10) 0 0 0 0 0
20-03-2020 10.7 (16:10) 4.6 (00:00) 7.6 9.17 (17:20) 6.39 (17:20) 0 0 0 0 0
19-03-2020 13.9 (16:30) 6 (00:00) 9.9 11.39 (20:30) 7.78 (19:40) 0 0 0 0 0
18-03-2020 14.2 (15:40) 7.2 (00:00) 10.7 6.11 (16:20) 4.17 (15:50) 0 0 0 0 0
17-03-2020 9.7 (15:10) 5.7 (00:00) 7.7 9.44 (15:10) 6.67 (15:10) 0.8 0.8 0 0 0
16-03-2020 6.7 (16:30) 0.4 (00:00) 3.5 10.28 (17:40) 6.94 (18:00) 19.6 5.8 7 2.8 4
15-03-2020 15.6 (16:10) -0.6 (-00:0) 7.5 11.94 (19:10) 7.22 (19:10) 5.8 0 0 2.4 3.4
14-03-2020 14.8 (16:30) -2.9 (-00:0) 6 6.11 (20:10) 4.17 (20:10) 0 0 0 0 0
13-03-2020 9.5 (13:30) 1.5 (22:50) 5.5 7.78 (03:50) 5.83 (11:50) 0 0 0 0 0
12-03-2020 13.5 (14:30) 6.2 (00:00) 9.8 7.22 (16:30) 4.72 (16:20) 0 0 0 0 0
11-03-2020 22.5 (15:40) 2.9 (00:00) 12.7 10 (16:00) 6.39 (15:00) 0 0 0 0 0
10-03-2020 19 (16:10) 2.6 (00:00) 10.8 9.72 (13:40) 6.67 (13:50) 0 0 0 0 0
09-03-2020 10.8 (13:30) 3.9 (00:00) 7.4 9.17 (12:10) 5.83 (11:10) 0 0 0 0 0

Gráficas

Temp. máximas Temp. mínimas Temp. medias Precipitaciones Rachas de viento máximas Velocidades máximas media en intervalos de 10 minutos

Datos horarios

Fecha y hora oficial Temperatura (ºC) Velocidad del viento (km/h) Dirección del viento Racha (km/h) Dirección de racha Precipitación (mm) Presión (hPa) Tendencia (hPa) Humedad (%)
2020-04-07 23:00:00 10.3 8 Este 16 Este 0 -- -- 100
2020-04-07 22:00:00 10.2 6 Este 18 Sudeste 0 -- -- 100
2020-04-07 21:00:00 10.1 6 Sudeste 27 Este 0 -- -- 100
2020-04-07 20:00:00 10.2 14 Este 28 Este 0 -- -- 100
2020-04-07 19:00:00 10.4 15 Este 26 Este 0 -- -- 100
2020-04-07 18:00:00 10.5 18 Sudeste 35 Este 0 -- -- 100
2020-04-07 17:00:00 11.1 16 Sudeste 26 Este 0 -- -- 98
2020-04-07 16:00:00 11.8 12 Sudeste 25 Este 0 -- -- 95
2020-04-07 15:00:00 11.6 17 Este 26 Este 0 -- -- 96
2020-04-07 14:00:00 11.8 18 Sudeste 28 Este 0 -- -- 97
2020-04-07 13:00:00 11.8 13 Sudeste 19 Este 0 -- -- 97
2020-04-07 12:00:00 11.6 8 Sudeste 17 Sudeste 0 -- -- 97
2020-04-07 11:00:00 10.4 9 Sudeste 18 Sudeste 0 -- -- 100
2020-04-07 10:00:00 9.8 11 Este 18 Este 0 -- -- 100
2020-04-07 09:00:00 9.4 3 Sur 11 Sudeste 0 -- -- 100
2020-04-07 08:00:00 9 2 Sur 6 Este 0 -- -- 100
2020-04-07 07:00:00 9.1 4 Este 9 Sudeste 0 -- -- 100
2020-04-07 06:00:00 9.2 0 Calma 8 Sudeste 0 -- -- 100
2020-04-07 05:00:00 9.2 5 Sudeste 12 Este 0 -- -- 100
2020-04-07 04:00:00 9.3 4 Este 10 Este 0 -- -- 100
2020-04-07 03:00:00 9.4 3 Sur 10 Sudeste 0 -- -- 100
2020-04-07 02:00:00 9.4 6 Sur 22 Sudeste 0 -- -- 100
2020-04-07 01:00:00 9.4 15 Sudeste 28 Sudeste 0 -- -- 100
2020-04-07 00:00:00 9.7 19 Sudeste 27 Sudeste 0 -- -- 100
2020-04-06 23:00:00 9.9 15 Sudeste 26 Sudeste 0 -- -- 100
2020-04-06 22:00:00 9.9 15 Sudeste 31 Sudeste 0 -- -- 100
2020-04-06 21:00:00 10.1 12 Sudeste 20 Sudeste 0.2 -- -- 100
2020-04-06 20:00:00 10.4 0 Calma 28 Sudeste 0.2 -- -- 99
2020-04-06 19:00:00 10.9 21 Sudeste 33 Sudeste 0 -- -- 97
2020-04-06 18:00:00 11.1 22 Sudeste 31 Sudeste 0 -- -- 96
2020-04-06 17:00:00 10.9 19 Este 31 Este 0 -- -- 96
2020-04-06 16:00:00 11.6 19 Sudeste 30 Sudeste 0 -- -- 93
2020-04-06 15:00:00 10.9 19 Sudeste 32 Sudeste 0 -- -- 95
2020-04-06 14:00:00 10.3 19 Este 34 Sudeste 0 -- -- 98
2020-04-06 13:00:00 9.6 21 Sudeste 37 Sudeste 0 -- -- 100
2020-04-06 12:00:00 9.1 22 Sudeste 37 Este 0 -- -- 100
2020-04-06 11:00:00 8.4 25 Sudeste 41 Este 0 -- -- 100
2020-04-06 10:00:00 8.1 22 Sudeste 34 Este 0 -- -- 100
2020-04-06 09:00:00 8 22 Este 37 Sudeste 0.2 -- -- 100
2020-04-06 08:00:00 8 22 Sudeste 41 Este 0 -- -- 100
2020-04-06 07:00:00 8.2 24 Sudeste 38 Este 0 -- -- 100
2020-04-06 06:00:00 8.4 22 Este 33 Este 0 -- -- 100
2020-04-06 05:00:00 8.7 18 Sudeste 39 Sudeste 1.2 -- -- 100
2020-04-06 04:00:00 9.2 22 Sudeste 33 Sudeste 0 -- -- 98
2020-04-06 03:00:00 9.4 12 Sudeste 21 Sudeste 0.6 -- -- 97
2020-04-06 02:00:00 9.9 12 Sudeste 17 Sudeste 1.2 -- -- 95
2020-04-06 01:00:00 11.1 9 Sudeste 15 Sudeste 0 -- -- 91
2020-04-06 00:00:00 11.5 7 Sur 10 Sudeste 0 -- -- 92
2020-04-05 23:00:00 11.3 0 Calma 8 Sudoeste 0 -- -- 91
2020-04-05 22:00:00 12.1 0 Calma 21 Sudeste 0 -- -- 85
2020-04-05 21:00:00 12.9 15 Sudeste 27 Sudeste 0 -- -- 79
2020-04-05 20:00:00 13.1 17 Sudeste 32 Sudeste 0 -- -- 77
2020-04-05 19:00:00 14.2 20 Sudeste 36 Sudeste 0 -- -- 74
2020-04-05 18:00:00 14.6 20 Sudeste 42 Este 0 -- -- 73
2020-04-05 17:00:00 14.5 23 Sudeste 37 Este 0 -- -- 72
2020-04-05 16:00:00 15.5 19 Sudeste 34 Sudeste 0 -- -- 72
2020-04-05 15:00:00 14.2 20 Sudeste 31 Sudeste 0 -- -- 75
2020-04-05 14:00:00 13.8 20 Sudeste 40 Este 0 -- -- 78
2020-04-05 13:00:00 13.2 20 Sudeste 36 Sudeste 0 -- -- 82
2020-04-05 12:00:00 10.4 18 Sudeste 33 Sudeste 0 -- -- 86
2020-04-05 11:00:00 8.7 21 Sudeste 35 Sudeste 0 -- -- 92
2020-04-05 10:00:00 7.1 16 Sudeste 31 Sudeste 0 -- -- 96
2020-04-05 09:00:00 7.2 19 Sudeste 28 Sudeste 0 -- -- 96
2020-04-05 08:00:00 6 8 Sur 23 Sudeste 0 -- -- 99
2020-04-05 07:00:00 6.1 13 Sudeste 28 Sudeste 0 -- -- 98
2020-04-05 06:00:00 6.6 18 Sudeste 32 Sudeste 0 -- -- 98
2020-04-05 05:00:00 6.8 19 Sudeste 30 Sudeste 0 -- -- 98
2020-04-05 04:00:00 6.8 5 Sur 17 Sudeste 0 -- -- 97
2020-04-05 03:00:00 7.7 11 Sudeste 26 Sudeste 0 -- -- 94
2020-04-05 02:00:00 8.2 18 Sudeste 31 Sudeste 0 -- -- 90
2020-04-05 01:00:00 8.9 16 Sudeste 30 Este 0 -- -- 85
2020-04-05 00:00:00 9.4 19 Sudeste 26 Sudeste 0 -- -- 81
2020-04-04 23:00:00 9.9 9 Sur 22 Sudeste 0 -- -- 78
2020-04-04 22:00:00 10.7 19 Sudeste 27 Sudeste 0 -- -- 76
2020-04-04 21:00:00 11.9 21 Este 33 Este 0 -- -- 69
2020-04-04 20:00:00 13.4 19 Sudeste 35 Este 0 -- -- 65
2020-04-04 19:00:00 14.7 24 Este 36 Este 0 -- -- 62
2020-04-04 18:00:00 15.6 23 Este 39 Este 0 -- -- 62
2020-04-04 17:00:00 15.7 24 Este 35 Este 0 -- -- 64
2020-04-04 16:00:00 15.5 20 Este 33 Sudeste 0 -- -- 65
2020-04-04 15:00:00 14.6 20 Sudeste 30 Este 0 -- -- 65
2020-04-04 14:00:00 13.4 11 Este 22 Este 0 -- -- 69
2020-04-04 13:00:00 12.2 7 Este 19 Este 0 -- -- 66
2020-04-04 12:00:00 9.8 10 Este 18 Este 0 -- -- 78
2020-04-04 11:00:00 7.8 13 Este 20 Este 0 -- -- 80
2020-04-04 10:00:00 5.2 2 Nordeste 13 Este 0 -- -- 89
2020-04-04 09:00:00 1.1 0 Calma 8 Sur 0 -- -- 94
2020-04-04 08:00:00 -1.1 5 Sudoeste 9 Sudoeste 0 -- -- 97
2020-04-04 07:00:00 -0.3 6 Sudoeste 11 Sudoeste 0 -- -- 94
2020-04-04 06:00:00 -0.1 5 Sudoeste 9 Sur 0 -- -- 95
2020-04-04 05:00:00 0.2 5 Sur 8 Sur 0 -- -- 95
2020-04-04 04:00:00 0.5 0 Calma 13 Sur 0 -- -- 93
2020-04-04 03:00:00 1.5 9 Sudoeste 14 Sur 0 -- -- 90
2020-04-04 02:00:00 1.6 9 Sur 19 Sur 0 -- -- 90
2020-04-04 01:00:00 2.5 8 Sur 19 Sur 0 -- -- 89
2020-04-04 00:00:00 3.2 10 Sur 17 Sur 0 -- -- 87
2020-04-03 23:00:00 4.4 6 Sur 9 Sur 0 -- -- 82
2020-04-03 22:00:00 5.3 0 Calma 15 Sudeste 0 -- -- 79
2020-04-03 21:00:00 8.8 13 Sudeste 15 Sudeste 0 -- -- 62
2020-04-03 20:00:00 11.8 6 Sudeste 10 Sudeste 0 -- -- 56
2020-04-03 19:00:00 13 5 Este 14 Este 0 -- -- 50
2020-04-03 18:00:00 13.2 5 Sudeste 16 Sudeste 0 -- -- 50
2020-04-03 17:00:00 12.7 5 Este 13 Este 0 -- -- 60
2020-04-03 16:00:00 11.6 6 Nordeste 17 Este 0 -- -- 63
2020-04-03 15:00:00 10.9 7 Nordeste 18 Este 0 -- -- 64
2020-04-03 14:00:00 9.3 6 Nordeste 15 Este 0 -- -- 65
2020-04-03 13:00:00 8.3 6 Este 20 Este 0 -- -- 66
2020-04-03 12:00:00 7 4 Nordeste 17 Este 0 -- -- 79
2020-04-03 11:00:00 5.9 9 Este 16 Este 0 -- -- 78
2020-04-03 10:00:00 5.2 9 Este 14 Este 0 -- -- 83
2020-04-03 09:00:00 2.6 10 Sudeste 15 Sudeste 0 -- -- 90
2020-04-03 08:00:00 -0.6 0 Calma 10 Oeste 0 -- -- 98
2020-04-03 07:00:00 0 0 Calma 12 Sudeste 0 -- -- 95
2020-04-03 06:00:00 1.5 7 Sur 19 Sudeste 0 -- -- 91
2020-04-03 05:00:00 2.3 12 Sudeste 18 Sudeste 0 -- -- 91
2020-04-03 04:00:00 2.7 8 Este 12 Este 0 -- -- 91
2020-04-03 03:00:00 2.6 5 Este 9 Este 0 -- -- 92
2020-04-03 02:00:00 3 0 Calma 4 Sudeste 0 -- -- 92
2020-04-03 01:00:00 2.8 4 Este 6 Este 0 -- -- 94
2020-04-03 00:00:00 2.3 3 Este 5 Norte 0 -- -- 95
2020-04-02 23:00:00 3.7 0 Calma 8 Sudoeste 0 -- -- 92
2020-04-02 22:00:00 4.9 0 Calma 9 Norte 0 -- -- 86
2020-04-02 21:00:00 6.7 9 Norte 28 Norte 0 -- -- 80
2020-04-02 20:00:00 8.5 18 Norte 33 Norte 0 -- -- 72
2020-04-02 19:00:00 10 22 Norte 35 Norte 0 -- -- 68
2020-04-02 18:00:00 10.5 19 Nordeste 31 Norte 0 -- -- 75
2020-04-02 17:00:00 10.1 11 Norte 23 Nordeste 0 -- -- 79
2020-04-02 16:00:00 10.1 15 Nordeste 27 Norte 0 -- -- 79
2020-04-02 15:00:00 10 15 Nordeste 22 Nordeste 0 -- -- 84
2020-04-02 14:00:00 9.1 10 Nordeste 14 Nordeste 0 -- -- 92
2020-04-02 13:00:00 8.6 4 Noroeste 6 Noroeste 0 -- -- 93
2020-04-02 12:00:00 7.6 2 Norte 8 Nordeste 0.8 -- -- 99
2020-04-02 11:00:00 7.7 2 Oeste 6 Oeste 0 -- -- 98
2020-04-02 10:00:00 7.2 2 Sudoeste 5 Oeste 0 -- -- 100
2020-04-02 09:00:00 6.5 0 Calma -- -- 0 -- -- 100
2020-04-02 08:00:00 6.4 0 Calma -- -- 0 -- -- 100
2020-04-02 07:00:00 6.4 0 Calma -- -- 0 -- -- 100
2020-04-02 06:00:00 6.4 0 Calma -- -- 0.2 -- -- 100
2020-04-02 05:00:00 6.3 0 Calma 4 Norte 0 -- -- 100
2020-04-02 04:00:00 6.3 3 Norte 4 Nordeste 0.2 -- -- 100
2020-04-02 03:00:00 6.4 2 Nordeste 8 Este 0.4 -- -- 100
2020-04-02 02:00:00 6.4 3 Este 15 Este 0.2 -- -- 100
2020-04-02 01:00:00 6.5 8 Sudeste 17 Sudeste 0.4 -- -- 99
2020-04-02 00:00:00 6.8 15 Este 21 Este 0.2 -- -- 100
2020-04-01 23:00:00 6.8 7 Este 13 Este 0 -- -- 99
2020-04-01 22:00:00 7.1 8 Este 11 Este 0 -- -- 99
2020-04-01 21:00:00 7.3 8 Sudeste 20 Sudeste 0 -- -- 97
2020-04-01 20:00:00 7.7 13 Este 27 Este 0.2 -- -- 96
2020-04-01 19:00:00 8.7 13 Este 22 Este 0 -- -- 93
2020-04-01 18:00:00 9.5 14 Este 28 Este 0 -- -- 85
2020-04-01 17:00:00 9.6 17 Este 24 Este 0 -- -- 89
2020-04-01 16:00:00 9.2 11 Este 20 Este 0 -- -- 89
2020-04-01 15:00:00 8.9 12 Este 24 Este 0 -- -- 88
2020-04-01 14:00:00 8.6 12 Este 22 Este 0 -- -- 90
2020-04-01 13:00:00 8.2 15 Sudeste 28 Este 0 -- -- 90
2020-04-01 12:00:00 7 18 Este 29 Este 0 -- -- 95
2020-04-01 11:00:00 6.2 19 Este 32 Este 0 -- -- 99
2020-04-01 10:00:00 5.7 23 Este 35 Este 0.6 -- -- 100
2020-04-01 09:00:00 5.2 19 Este 32 Sudeste 0.8 -- -- 100
2020-04-01 08:00:00 5 11 Sudeste 23 Sudeste 0.2 -- -- 100
2020-04-01 07:00:00 4.9 6 Sudeste 21 Este 0 -- -- 100
2020-04-01 06:00:00 4.8 8 Sudeste 33 Este 0 -- -- 100
2020-04-01 05:00:00 4.9 22 Este 42 Este 0 -- -- 100
2020-04-01 04:00:00 4.8 28 Este 45 Este 0 -- -- 100
2020-04-01 03:00:00 4.6 26 Este 40 Este 0 -- -- 100
2020-04-01 02:00:00 4.6 24 Este 39 Este 0 -- -- 100
2020-04-01 01:00:00 4.5 24 Este 39 Este 0 -- -- 100
2020-04-01 00:00:00 4.3 23 Este 43 Este 0 -- -- 100
2020-03-31 23:00:00 4.2 31 Este 49 Este 0.2 -- -- 100
2020-03-31 22:00:00 4 21 Este 40 Sudeste 0 -- -- 100
2020-03-31 21:00:00 4.1 27 Este 42 Este 0 -- -- 99
2020-03-31 20:00:00 4.4 24 Este 41 Este 0 -- -- 96
2020-03-31 19:00:00 4.7 27 Este 44 Este 0 -- -- 93
2020-03-31 18:00:00 4.4 31 Este 56 Este 0 -- -- 93
2020-03-31 17:00:00 3.9 35 Este 53 Este 0 -- -- 94
2020-03-31 16:00:00 4 31 Este 48 Este 0 -- -- 93
2020-03-31 15:00:00 3.5 30 Este 48 Este 0 -- -- 94
2020-03-31 14:00:00 3.2 24 Este 42 Este 0 -- -- 93
2020-03-31 13:00:00 2.3 24 Este 42 Este 0 -- -- 92
2020-03-31 12:00:00 1.5 21 Este 38 Este 0 -- -- 93
2020-03-31 11:00:00 0.5 14 Este 33 Este 0 -- -- 94
2020-03-31 10:00:00 0.1 13 Este 27 Este 0 -- -- 95
2020-03-31 09:00:00 -0.5 11 Este 28 Este 0 -- -- 97
2020-03-31 08:00:00 -0.5 17 Este 27 Este 0 -- -- 97
2020-03-31 07:00:00 -0.8 13 Nordeste 22 Nordeste 0 -- -- 97
2020-03-31 06:00:00 -0.8 11 Nordeste 20 Nordeste 0 -- -- 95
2020-03-31 05:00:00 -1.1 7 Este 15 Este 0 -- -- 95
2020-03-31 04:00:00 -0.6 11 Este 16 Este 0 -- -- 94
2020-03-31 03:00:00 -0.9 0 Calma 4 Sudeste 0 -- -- 95
2020-03-31 02:00:00 -0.6 3 Sur 9 Sudeste 0 -- -- 92
2020-03-31 01:00:00 -0.7 4 Sudeste 9 Sudeste 0 -- -- 92
2020-03-31 00:00:00 -1 5 Nordeste 13 Nordeste 0 -- -- 93
2020-03-30 23:00:00 0.4 10 Nordeste 16 Nordeste 0 -- -- 88
2020-03-30 22:00:00 1.4 12 Este 17 Este 0 -- -- 84
2020-03-30 21:00:00 1.8 10 Nordeste 16 Nordeste 0 -- -- 76
2020-03-30 20:00:00 2.2 12 Norte 24 Nordeste 0 -- -- 72
2020-03-30 19:00:00 3.1 18 Norte 26 Norte 0 -- -- 68
2020-03-30 18:00:00 3.3 12 Norte 25 Norte 0 -- -- 69
2020-03-30 17:00:00 3.8 15 Nordeste 25 Norte 0 -- -- 69
2020-03-30 16:00:00 4.3 17 Norte 26 Norte 0 -- -- 68
2020-03-30 15:00:00 4.2 10 Norte 28 Norte 0 -- -- 66
2020-03-30 14:00:00 3.6 16 Norte 28 Norte 0 -- -- 65
2020-03-30 13:00:00 2.9 17 Nordeste 31 Nordeste 0 -- -- 70
2020-03-30 12:00:00 2.3 14 Nordeste 27 Nordeste 0 -- -- 71
2020-03-30 11:00:00 2.9 19 Norte 31 Norte 0 -- -- 77
2020-03-30 10:00:00 1.9 16 Nordeste 27 Nordeste 0 -- -- 75
2020-03-30 09:00:00 0.7 8 Nordeste 28 Nordeste 0 -- -- 84
2020-03-30 08:00:00 0.5 14 Nordeste 21 Nordeste 0 -- -- 81
2020-03-30 07:00:00 1.3 9 Nordeste 16 Nordeste 0 -- -- 80
2020-03-30 06:00:00 1.4 10 Nordeste 20 Nordeste 0 -- -- 81
2020-03-30 05:00:00 1.9 17 Nordeste 27 Nordeste 0 -- -- 78
2020-03-30 04:00:00 2.1 13 Nordeste 26 Nordeste 0 -- -- 92
2020-03-30 03:00:00 3 15 Nordeste 24 Norte 0 -- -- 83
2020-03-30 02:00:00 3.2 11 Nordeste 28 Nordeste 0 -- -- 86
2020-03-30 01:00:00 3.7 16 Norte 28 Nordeste 0 -- -- 85
2020-03-30 00:00:00 4.5 17 Norte 27 Norte 0 -- -- 86
2020-03-29 23:00:00 5.3 15 Norte 25 Norte 0 -- -- 91
2020-03-29 22:00:00 5.9 7 Nordeste 23 Nordeste 0 -- -- 89
2020-03-29 21:00:00 6.2 16 Nordeste 29 Nordeste 0 -- -- 88
2020-03-29 20:00:00 7 19 Nordeste 31 Nordeste 0 -- -- 86
2020-03-29 19:00:00 8.5 22 Nordeste 35 Nordeste 0 -- -- 79
2020-03-29 18:00:00 11.3 23 Norte 31 Norte 0 -- -- 64
2020-03-29 17:00:00 12.2 17 Norte 27 Norte 0 -- -- 54
2020-03-29 16:00:00 12.7 13 Norte 26 Este 0 -- -- 51
2020-03-29 15:00:00 12.3 13 Este 28 Nordeste 0 -- -- 57
2020-03-29 14:00:00 11.5 9 Norte 21 Nordeste 0 -- -- 53
2020-03-29 13:00:00 10.6 9 Nordeste 15 Nordeste 0 -- -- 53
2020-03-29 12:00:00 9.1 8 Nordeste 13 Nordeste 0 -- -- 66
2020-03-29 11:00:00 8 4 Nordeste 8 Nordeste 0 -- -- 67
2020-03-29 10:00:00 4 2 Oeste 5 Sudoeste 0 -- -- 88
2020-03-29 09:00:00 0.9 2 Sur 7 Sudeste 0 -- -- 98
2020-03-29 08:00:00 -0.6 3 Sudoeste 5 Sudoeste 0 -- -- 97
2020-03-29 07:00:00 0.4 0 Calma 10 Sudoeste 0 -- -- 95
2020-03-29 06:00:00 0.8 3 Sudoeste 8 Sudoeste 0 -- -- 96
2020-03-29 05:00:00 1 4 Sur 9 Sur 0 -- -- 95
2020-03-29 03:00:00 2.5 0 Calma 9 Sudoeste 0 -- -- 94
2020-03-29 01:00:00 3.2 0 Calma 8 Sudoeste 0 -- -- 90
2020-03-29 00:00:00 4.8 3 Este 12 Sudeste 0 -- -- 86
2020-03-28 23:00:00 6.4 9 Sudeste 14 Sudeste 0 -- -- 81
2020-03-28 22:00:00 7 7 Sudeste 17 Este 0 -- -- 80
2020-03-28 21:00:00 8 14 Este 20 Este 0 -- -- 76
2020-03-28 20:00:00 9 12 Este 18 Este 0 -- -- 74
2020-03-28 19:00:00 12.9 10 Este 15 Sudeste 0 -- -- 59
2020-03-28 18:00:00 14.2 11 Sudeste 18 Sudeste 0 -- -- 52
2020-03-28 17:00:00 15.4 5 Sudeste 11 Este 0 -- -- 42
2020-03-28 16:00:00 15 4 Noroeste 18 Nordeste 0 -- -- 38
2020-03-28 15:00:00 14.4 5 Nordeste 14 Nordeste 0 -- -- 42
2020-03-28 14:00:00 13.8 5 Nordeste 15 Nordeste 0 -- -- 37
2020-03-28 13:00:00 12.8 4 Norte 13 Noroeste 0 -- -- 49
2020-03-28 12:00:00 11.5 7 Norte 14 Noroeste 0 -- -- 54
2020-03-28 11:00:00 9.3 4 Norte 9 Norte 0 -- -- 70
2020-03-28 10:00:00 6 3 Norte 6 Noroeste 0 -- -- 82
2020-03-28 09:00:00 2.9 3 Sur 8 Sur 0 -- -- 90
2020-03-28 08:00:00 -0.3 3 Sur 10 Sur 0 -- -- 97
2020-03-28 07:00:00 -1.1 5 Sudoeste 15 Sur 0 -- -- 95
2020-03-28 06:00:00 -1.1 4 Sur 10 Sur 0 -- -- 96
2020-03-28 05:00:00 -0.6 5 Sur 8 Sur 0 -- -- 95
2020-03-28 04:00:00 -0.3 4 Sur 13 Sur 0 -- -- 94
2020-03-28 03:00:00 0.6 8 Sur 15 Sur 0 -- -- 93
2020-03-28 02:00:00 1.2 8 Sur 12 Sur 0 -- -- 93
2020-03-28 01:00:00 1.3 4 Sur 8 Sudoeste 0 -- -- 93
2020-03-28 00:00:00 1.7 3 Sudoeste 9 Sudoeste 0 -- -- 93
2020-03-27 23:00:00 3.1 5 Oeste 15 Este 0 -- -- 88
2020-03-27 22:00:00 4.2 10 Este 16 Este 0 -- -- 85
2020-03-27 21:00:00 4.9 10 Este 18 Este 0 -- -- 79
2020-03-27 20:00:00 6.2 10 Sudeste 18 Este 0 -- -- 68
2020-03-27 19:00:00 9.7 11 Este 21 Este 0 -- -- 55
2020-03-27 18:00:00 10.6 17 Este 27 Este 0 -- -- 48
2020-03-27 17:00:00 10.8 15 Este 32 Nordeste 0 -- -- 50
2020-03-27 16:00:00 11 19 Nordeste 30 Este 0 -- -- 47
2020-03-27 15:00:00 10.4 21 Este 32 Este 0 -- -- 55
2020-03-27 14:00:00 9.8 13 Este 27 Este 0 -- -- 51
2020-03-27 13:00:00 8.8 13 Este 31 Este 0 -- -- 64
2020-03-27 12:00:00 7.6 15 Este 28 Este 0 -- -- 66
2020-03-27 11:00:00 6.5 10 Este 22 Este 0 -- -- 71
2020-03-27 10:00:00 4.7 6 Nordeste 16 Este 0 -- -- 79
2020-03-27 09:00:00 2.2 2 Sudeste 8 Este 0 -- -- 88
2020-03-27 08:00:00 -1.2 0 Calma 4 Oeste 0 -- -- 99
2020-03-27 07:00:00 -2.8 0 Calma 4 Noroeste 0 -- -- 95
2020-03-27 06:00:00 -1.5 6 Este 12 Este 0 -- -- 93
2020-03-27 05:00:00 -1.9 0 Calma 10 Sudeste 0 -- -- 94
2020-03-27 04:00:00 -2.1 0 Calma 4 Oeste 0 -- -- 95
2020-03-27 03:00:00 -1.8 0 Calma 7 Este 0 -- -- 92
2020-03-27 02:00:00 -1 0 Calma 6 Noroeste 0 -- -- 89
2020-03-27 01:00:00 0.6 5 Este 14 Este 0 -- -- 87
2020-03-27 00:00:00 0.7 3 Este 15 Norte 0 -- -- 81
2020-03-26 23:00:00 2.4 8 Norte 20 Norte 0 -- -- 76
2020-03-26 22:00:00 2.8 9 Norte 22 Norte 0 -- -- 77
2020-03-26 21:00:00 2.7 3 Oeste 13 Norte 0 -- -- 83
2020-03-26 20:00:00 4.6 10 Norte 21 Norte 0 -- -- 73
2020-03-26 19:00:00 6 13 Norte 26 Norte 0 -- -- 68
2020-03-26 18:00:00 6.6 14 Nordeste 26 Norte 0 -- -- 65
2020-03-26 17:00:00 7.8 14 Norte 35 Norte 0 -- -- 67
2020-03-26 16:00:00 8.4 18 Norte 34 Norte 0 -- -- 68
2020-03-26 15:00:00 8.4 21 Norte 36 Norte 0 -- -- 68
2020-03-26 14:00:00 7.4 22 Norte 35 Norte 0 -- -- 68
2020-03-26 13:00:00 6.8 17 Norte 35 Norte 0 -- -- 69
2020-03-26 12:00:00 6.3 21 Norte 35 Norte 0 -- -- 69
2020-03-26 11:00:00 6.3 15 Norte 28 Norte 0 -- -- 77
2020-03-26 10:00:00 5.5 11 Norte 18 Noroeste 0 -- -- 78
2020-03-26 09:00:00 3.2 4 Sur 11 Sur 0 -- -- 89
2020-03-26 08:00:00 0.8 9 Sur 15 Sur 0 -- -- 93
2020-03-26 07:00:00 0.4 8 Sur 11 Sur 0 -- -- 93
2020-03-26 06:00:00 0.5 0 Calma 4 Sudoeste 0 -- -- 95
2020-03-26 05:00:00 0.8 0 Calma 5 Sudeste 0 -- -- 90
2020-03-26 04:00:00 2 0 Calma 6 Sur 0 -- -- 89
2020-03-26 03:00:00 1.3 3 Oeste 10 Sudoeste 0 -- -- 89
2020-03-26 02:00:00 1.7 0 Calma 7 Sur 0 -- -- 93
2020-03-26 01:00:00 0.7 3 Este 9 Norte 0 -- -- 91
2020-03-26 00:00:00 2.3 0 Calma 8 Norte 0 -- -- 84
2020-03-25 23:00:00 3.1 2 Sudeste 21 Norte 0 -- -- 83
2020-03-25 22:00:00 4.7 12 Norte 20 Norte 0 -- -- 75
2020-03-25 21:00:00 6.2 5 Noroeste 10 Noroeste 0 -- -- 63
2020-03-25 20:00:00 8.4 8 Oeste 16 Noroeste 0 -- -- 53
2020-03-25 19:00:00 11.4 11 Norte 24 Norte 0 -- -- 39
2020-03-25 18:00:00 13.4 14 Norte 27 Nordeste 0 -- -- 43
2020-03-25 17:00:00 13.7 17 Norte 25 Nordeste 0 -- -- 43
2020-03-25 16:00:00 14.9 15 Norte 28 Nordeste 0 -- -- 46
2020-03-25 15:00:00 15.1 12 Norte 24 Nordeste 0 -- -- 54
2020-03-25 14:00:00 14 15 Nordeste 23 Nordeste 0 -- -- 51
2020-03-25 13:00:00 12.8 5 Norte 18 Norte 0 -- -- 65
2020-03-25 12:00:00 12.2 6 Norte 14 Norte 0 -- -- 73
2020-03-25 11:00:00 11.1 0 Calma 0 Calma 0 -- -- 80
2020-03-25 10:00:00 8.4 0 Calma 5 Sur 0 -- -- 87
2020-03-25 09:00:00 5.8 2 Sudoeste 8 Sudoeste 0 -- -- 94
2020-03-25 08:00:00 2.5 0 Calma 5 Sudoeste 0 -- -- 100
2020-03-25 07:00:00 1.8 0 Calma 7 Sudoeste 0 -- -- 100
2020-03-25 06:00:00 2.9 5 Sur 14 Sur 0 -- -- 97
2020-03-25 05:00:00 3.1 6 Sur 16 Sur 0 -- -- 97
2020-03-25 04:00:00 3.9 9 Sur 13 Sur 0 -- -- 96
2020-03-25 03:00:00 4.4 6 Sur 12 Sur 0 -- -- 95
2020-03-25 02:00:00 4.3 6 Sur 15 Sur 0 -- -- 94
2020-03-25 01:00:00 5 7 Sur 14 Sur 0 -- -- 94
2020-03-25 00:00:00 5.9 0 Calma 9 Oeste 0 -- -- 94
2020-03-24 23:00:00 6.4 2 Sudoeste 5 Sudoeste 0 -- -- 94
2020-03-24 22:00:00 5.8 0 Calma 3 Oeste 0 -- -- 92
2020-03-24 21:00:00 7.2 0 Calma 12 Norte 0 -- -- 86
2020-03-24 20:00:00 9.8 8 Sudeste 10 Sudeste 0 -- -- 75
2020-03-24 19:00:00 12.1 5 Sudeste 21 Este 0 -- -- 72
2020-03-24 18:00:00 13.2 15 Este 27 Este 0 -- -- 63
2020-03-24 17:00:00 13.6 17 Este 34 Este 0 -- -- 63
2020-03-24 16:00:00 13.6 22 Este 34 Nordeste 0 -- -- 63
2020-03-24 15:00:00 13.5 20 Este 36 Este 0 -- -- 66
2020-03-24 14:00:00 12.7 18 Este 35 Este 0 -- -- 72
2020-03-24 13:00:00 12.6 22 Este 33 Este 0 -- -- 80
2020-03-24 12:00:00 11.8 16 Este 27 Este 0 -- -- 79
2020-03-24 11:00:00 10.5 15 Este 24 Sudeste 0 -- -- 84
2020-03-24 10:00:00 8.4 14 Este 25 Este 0 -- -- 94
2020-03-24 09:00:00 7.9 18 Este 26 Este 0 -- -- 95
2020-03-24 08:00:00 7.5 16 Este 32 Este 0 -- -- 98
2020-03-24 07:00:00 7.8 14 Este 27 Sudeste 0 -- -- 99
2020-03-24 06:00:00 8.1 12 Este 27 Sudeste 0 -- -- 98
2020-03-24 05:00:00 8 14 Este 25 Este 0 -- -- 100
2020-03-24 04:00:00 8 8 Este 25 Este 0 -- -- 100
2020-03-24 03:00:00 8 17 Este 33 Este 0 -- -- 100
2020-03-24 02:00:00 8.2 17 Este 31 Sudeste 0 -- -- 99
2020-03-24 01:00:00 8.3 17 Este 35 Este 0 -- -- 99
2020-03-24 00:00:00 8.4 22 Este 33 Este 0 -- -- 98
2020-03-23 23:00:00 8.5 19 Este 27 Este 0 -- -- 97
2020-03-23 22:00:00 8.1 9 Este 37 Este 0 -- -- 95
2020-03-23 21:00:00 9.9 10 Este 33 Este 0 -- -- 86
2020-03-23 20:00:00 10.8 17 Este 29 Este 0 -- -- 81
2020-03-23 19:00:00 11.6 17 Este 33 Este 0 -- -- 78
2020-03-23 18:00:00 12.2 18 Este 32 Este 0 -- -- 77
2020-03-23 17:00:00 12.6 21 Este 37 Este 0 -- -- 73
2020-03-23 16:00:00 13.1 20 Este 38 Este 0 -- -- 72
2020-03-23 15:00:00 12.8 30 Este 41 Este 0 -- -- 74
2020-03-23 14:00:00 12.1 23 Este 34 Este 0 -- -- 78
2020-03-23 13:00:00 12.4 15 Este 25 Este 0 -- -- 79
2020-03-23 12:00:00 10.6 18 Nordeste 27 Nordeste 0 -- -- 87
2020-03-23 11:00:00 9.8 15 Este 23 Este 0 -- -- 89
2020-03-23 10:00:00 9.8 14 Este 22 Sudeste 0 -- -- 90
2020-03-23 09:00:00 8.1 7 Nordeste 11 Este 0 -- -- 99
2020-03-23 08:00:00 7 3 Nordeste 11 Nordeste 0 -- -- 100
2020-03-23 07:00:00 6.9 9 Este 20 Este 0 -- -- 100
2020-03-23 06:00:00 7.2 8 Este 18 Este 0 -- -- 100
2020-03-23 05:00:00 6.9 3 Este 13 Este 0 -- -- 98
2020-03-23 04:00:00 6.5 0 Calma 6 Este 0 -- -- 97
2020-03-23 03:00:00 6.5 0 Calma 4 Nordeste 0 -- -- 98
2020-03-23 02:00:00 7.2 3 Sudoeste 6 Sudoeste 0 -- -- 96
2020-03-23 01:00:00 6.9 0 Calma 5 Sudoeste 0 -- -- 95
2020-03-23 00:00:00 6.6 0 Calma 11 Este 0 -- -- 95
2020-03-22 23:00:00 7.8 8 Este 16 Sudeste 0 -- -- 92
2020-03-22 22:00:00 7.8 3 Este 13 Este 0 -- -- 92
2020-03-22 21:00:00 8.8 10 Este 21 Este 0 -- -- 91
2020-03-22 20:00:00 10.1 17 Este 31 Nordeste 0 -- -- 80
2020-03-22 19:00:00 11.5 13 Este 23 Este 0 -- -- 79
2020-03-22 18:00:00 12.3 12 Este 33 Este 0 -- -- 72
2020-03-22 17:00:00 13 18 Este 36 Este 0 -- -- 68
2020-03-22 16:00:00 15 12 Este 23 Este 0 -- -- 63
2020-03-22 15:00:00 13.9 13 Este 26 Este 0 -- -- 67
2020-03-22 14:00:00 14.2 13 Nordeste 25 Este 0 -- -- 71
2020-03-22 13:00:00 13.3 12 Este 27 Nordeste 0 -- -- 72
2020-03-22 12:00:00 11.9 8 Nordeste 16 Este 0 -- -- 79
2020-03-22 11:00:00 10.9 6 Este 14 Este 0 -- -- 82
2020-03-22 10:00:00 9.3 5 Este 12 Este 0 -- -- 86
2020-03-22 09:00:00 6.2 0 Calma 3 Sudoeste 0 -- -- 96
2020-03-22 08:00:00 3 0 Calma 4 Oeste 0 -- -- 100
2020-03-22 07:00:00 3 2 Oeste 5 Sur 0 -- -- 100
2020-03-22 06:00:00 4.1 4 Sur 6 Sudeste 0 -- -- 100
2020-03-22 05:00:00 4.6 0 Calma 6 Sur 0 -- -- 99
2020-03-22 04:00:00 5 0 Calma 5 Oeste 0 -- -- 100
2020-03-22 03:00:00 4.9 0 Calma 6 Sudoeste 0 -- -- 100
2020-03-22 02:00:00 4.6 0 Calma 6 Oeste 0 -- -- 98
2020-03-22 01:00:00 4.8 0 Calma 5 Sur 0 -- -- 96
2020-03-22 00:00:00 6.8 4 Sur 11 Sudeste 0 -- -- 91
2020-03-21 23:00:00 7.6 4 Sudoeste 13 Sudeste 0 -- -- 86
2020-03-21 22:00:00 8.2 6 Sudeste 11 Sudeste 0 -- -- 87
2020-03-21 21:00:00 9.6 5 Sudeste 14 Este 0 -- -- 85
2020-03-21 20:00:00 9.8 3 Sur 12 Este 0 -- -- 88
2020-03-21 19:00:00 11.4 8 Sudeste 15 Este 0 -- -- 85
2020-03-21 18:00:00 12.2 8 Sudeste 14 Sudeste 0 -- -- 78
2020-03-21 17:00:00 12.9 4 Sur 15 Sudeste 0 -- -- 74
2020-03-21 16:00:00 12.7 9 Sudeste 19 Este 0 -- -- 76
2020-03-21 15:00:00 12.1 10 Este 19 Este 0 -- -- 83
2020-03-21 14:00:00 9.8 5 Sur 14 Sur 0 -- -- 91
2020-03-21 13:00:00 8.3 9 Sudeste 21 Sudeste 0 -- -- 94
2020-03-21 12:00:00 6.4 10 Sudeste 26 Este 0 -- -- 100
2020-03-21 11:00:00 5.5 13 Este 21 Este 0 -- -- 100
2020-03-21 10:00:00 5.5 7 Este 19 Este 0 -- -- 100
2020-03-21 09:00:00 5.2 6 Norte 32 Este 0 -- -- 100
2020-03-21 08:00:00 5.1 6 Este 22 Este 0 -- -- 100
2020-03-21 07:00:00 5.2 10 Sudeste 19 Sudeste 0 -- -- 100
2020-03-21 06:00:00 5.6 11 Este 19 Este 0 -- -- 100
2020-03-21 05:00:00 6.2 7 Este 14 Este 0 -- -- 100
2020-03-21 04:00:00 6.5 5 Sudeste 15 Sudeste 0 -- -- 100
2020-03-21 03:00:00 6.6 5 Sur 16 Sudeste 0 -- -- 100
2020-03-21 02:00:00 6.8 0 Calma 18 Sudeste 0 -- -- 98
2020-03-21 01:00:00 6.5 3 Este 9 Este 0 -- -- 100
2020-03-21 00:00:00 6.7 3 Sudoeste 10 Sur 0 -- -- 99
2020-03-20 23:00:00 6.3 4 Sudoeste 8 Sudeste 0 -- -- 98
2020-03-20 22:00:00 6.3 0 Calma 8 Sur 0 -- -- 96
2020-03-20 21:00:00 7.9 5 Sudoeste 26 Sudeste 0 -- -- 92
2020-03-20 20:00:00 9 19 Este 28 Este 0 -- -- 89
2020-03-20 19:00:00 9.9 19 Este 33 Sudeste 0 -- -- 87
2020-03-20 18:00:00 10.4 21 Este 33 Este 0 -- -- 87
2020-03-20 17:00:00 10.3 19 Sudeste 32 Este 0 -- -- 89
2020-03-20 16:00:00 10.4 14 Sudeste 26 Norte 0 -- -- 87
2020-03-20 15:00:00 8.9 10 Sudeste 24 Sudeste 0 -- -- 91
2020-03-20 14:00:00 8.8 13 Sudeste 24 Sudeste 0 -- -- 90
2020-03-20 13:00:00 7.3 11 Sudeste 27 Sudeste 0 -- -- 96
2020-03-20 12:00:00 6.5 16 Este 27 Sudeste 0 -- -- 97
2020-03-20 11:00:00 5.5 13 Sudeste 24 Este 0 -- -- 97
2020-03-20 10:00:00 5.1 14 Sudeste 23 Sudeste 0 -- -- 98
2020-03-20 09:00:00 5 13 Sudeste 28 Este 0 -- -- 98
2020-03-20 08:00:00 4.8 8 Este 17 Este 0 -- -- 99
2020-03-20 07:00:00 4.7 6 Sudoeste 18 Sur 0 -- -- 98
2020-03-20 06:00:00 4.7 3 Sur 15 Este 0 -- -- 96
2020-03-20 05:00:00 5.4 6 Sur 16 Sudeste 0 -- -- 95
2020-03-20 04:00:00 6.3 6 Sudoeste 17 Sudeste 0 -- -- 97
2020-03-20 03:00:00 6.3 4 Este 14 Este 0 -- -- 98
2020-03-20 02:00:00 5.7 0 Calma 5 Oeste 0 -- -- 100
2020-03-20 01:00:00 5.7 3 Sudoeste 8 Sudoeste 0 -- -- 100
2020-03-20 00:00:00 6 5 Sudoeste 9 Sudoeste 0 -- -- 97
2020-03-19 23:00:00 6.4 4 Sudoeste 8 Sudoeste 0 -- -- 96
2020-03-19 22:00:00 8.1 2 Sudeste 21 Sudeste 0 -- -- 93
2020-03-19 21:00:00 9.3 18 Sudeste 41 Sudeste 0 -- -- 88
2020-03-19 20:00:00 10.6 24 Este 39 Este 0 -- -- 84
2020-03-19 19:00:00 11.4 22 Este 37 Sudeste 0 -- -- 86
2020-03-19 18:00:00 12.6 26 Este 38 Este 0 -- -- 85
2020-03-19 17:00:00 13.4 13 Este 26 Este 0 -- -- 84
2020-03-19 16:00:00 13.6 12 Sudeste 23 Sudeste 0 -- -- 83
2020-03-19 15:00:00 12.8 11 Sudeste 22 Sudeste 0 -- -- 89
2020-03-19 14:00:00 13.1 13 Sudeste 25 Este 0 -- -- 82
2020-03-19 13:00:00 12.3 13 Este 21 Este 0 -- -- 83
2020-03-19 12:00:00 10.8 7 Sudeste 19 Este 0 -- -- 90
2020-03-19 11:00:00 9.3 11 Este 16 Este 0 -- -- 98
2020-03-19 10:00:00 8.5 6 Nordeste 12 Este 0 -- -- 100
2020-03-19 09:00:00 8.4 5 Este 11 Este 0 -- -- 100
2020-03-19 08:00:00 8.4 0 Calma 9 Este 0 -- -- 100
2020-03-19 07:00:00 8.6 2 Sudeste 10 Este 0 -- -- 100
2020-03-19 06:00:00 8.8 3 Sudeste 9 Este 0 -- -- 100
2020-03-19 05:00:00 9 2 Este 12 Este 0 -- -- 100
2020-03-19 04:00:00 9.3 5 Este 12 Este 0 -- -- 100
2020-03-19 03:00:00 9.6 8 Este 14 Sudeste 0 -- -- 100
2020-03-19 02:00:00 9.7 5 Sudeste 14 Este 0 -- -- 100
2020-03-19 01:00:00 9.9 6 Este 14 Este 0 -- -- 100
2020-03-19 00:00:00 9.9 5 Este 12 Sudeste 0 -- -- 100
2020-03-18 23:00:00 10 3 Sudeste 18 Sudeste 0 -- -- 100
2020-03-18 22:00:00 9.4 3 Este 6 Sudeste 0 -- -- 100
2020-03-18 21:00:00 8.8 0 Calma 6 Sudeste 0 -- -- 96
2020-03-18 20:00:00 9.8 0 Calma 11 Sudeste 0 -- -- 93
2020-03-18 19:00:00 11.4 3 Sudeste 15 Este 0 -- -- 92
2020-03-18 18:00:00 12.2 8 Sudeste 19 Sudeste 0 -- -- 86
2020-03-18 17:00:00 13.3 9 Este 22 Este 0 -- -- 83
2020-03-18 16:00:00 14 13 Este 22 Este 0 -- -- 83
2020-03-18 15:00:00 13.7 13 Este 21 Este 0 -- -- 86
2020-03-18 14:00:00 12.8 9 Este 16 Este 0 -- -- 86
2020-03-18 13:00:00 11.7 6 Este 15 Este 0 -- -- 90
2020-03-18 12:00:00 10.7 8 Este 17 Este 0 -- -- 92
2020-03-18 11:00:00 9.3 7 Este 12 Este 0 -- -- 98
2020-03-18 10:00:00 8.2 8 Este 14 Este 0 -- -- 100
2020-03-18 09:00:00 7.5 0 Calma 6 Oeste 0 -- -- 100
2020-03-18 08:00:00 7.2 4 Sudoeste 6 Sudeste 0 -- -- 100
2020-03-18 07:00:00 7.4 6 Este 10 Sudeste 0 -- -- 100
2020-03-18 06:00:00 7.7 4 Este 12 Este 0 -- -- 100
2020-03-18 05:00:00 7.5 4 Este 11 Este 0 -- -- 100
2020-03-18 04:00:00 7.4 3 Sudeste 15 Sudeste 0 -- -- 100
2020-03-18 03:00:00 7.4 7 Este 11 Este 0 -- -- 100
2020-03-18 02:00:00 7.8 4 Sur 10 Este 0 -- -- 100
2020-03-18 01:00:00 8 4 Este 6 Este 0 -- -- 100
2020-03-18 00:00:00 8.1 4 Este 9 Sudeste 0 -- -- 100
2020-03-17 23:00:00 8.3 2 Sur 10 Este 0 -- -- 100
2020-03-17 22:00:00 8.3 6 Sudeste 15 Este 0 -- -- 100
2020-03-17 21:00:00 8.5 4 Este 24 Este 0 -- -- 100
2020-03-17 20:00:00 8.7 12 Este 28 Este 0 -- -- 100
2020-03-17 19:00:00 9.3 11 Este 28 Este 0 -- -- 97
2020-03-17 18:00:00 9.5 18 Este 28 Sudeste 0 -- -- 96
2020-03-17 17:00:00 9.4 17 Este 27 Este 0 -- -- 96
2020-03-17 16:00:00 8.8 8 Nordeste 34 Este 0 -- -- 100
2020-03-17 15:00:00 9.6 22 Este 31 Este 0 -- -- 98
2020-03-17 14:00:00 8.7 12 Este 23 Este 0 -- -- 100
2020-03-17 13:00:00 8.1 17 Nordeste 26 Nordeste 0 -- -- 100
2020-03-17 12:00:00 8 17 Nordeste 25 Este 0 -- -- 99
2020-03-17 11:00:00 8.3 18 Nordeste 28 Este 0 -- -- 98
2020-03-17 10:00:00 7.6 16 Nordeste 28 Este 0 -- -- 98
2020-03-17 09:00:00 7.1 18 Nordeste 26 Este 0 -- -- 98
2020-03-17 08:00:00 6.7 5 Nordeste 14 Nordeste 0 -- -- 100
2020-03-17 07:00:00 6.4 5 Nordeste 17 Nordeste 0 -- -- 99
2020-03-17 06:00:00 6.3 8 Nordeste 13 Nordeste 0 -- -- 100
2020-03-17 05:00:00 6.2 10 Nordeste 16 Nordeste 0 -- -- 100
2020-03-17 04:00:00 6 10 Nordeste 17 Nordeste 0 -- -- 100
2020-03-17 03:00:00 5.9 7 Nordeste 13 Nordeste 0 -- -- 100
2020-03-17 02:00:00 5.7 6 Nordeste 10 Nordeste 0.8 -- -- 100
2020-03-17 01:00:00 5.9 7 Nordeste 15 Nordeste 0 -- -- 100
2020-03-17 00:00:00 5.7 8 Nordeste 14 Nordeste 1 -- -- 100
2020-03-16 23:00:00 5.6 10 Nordeste 22 Nordeste 0.8 -- -- 99
2020-03-16 22:00:00 5.7 13 Nordeste 28 Nordeste 0.4 -- -- 97
2020-03-16 21:00:00 5.9 19 Norte 31 Norte 0.6 -- -- 96
2020-03-16 20:00:00 5.9 20 Nordeste 30 Nordeste 1 -- -- 97
2020-03-16 19:00:00 6.3 13 Norte 32 Nordeste 0.2 -- -- 96
2020-03-16 18:00:00 6.5 25 Nordeste 37 Norte 0 -- -- 93
2020-03-16 17:00:00 6.5 23 Nordeste 32 Norte 0.6 -- -- 94
2020-03-16 16:00:00 6.4 4 Nordeste 30 Norte 0.4 -- -- 97
2020-03-16 15:00:00 5.9 24 Nordeste 36 Nordeste 0.4 -- -- 95
2020-03-16 14:00:00 5.3 19 Nordeste 32 Nordeste 0.8 -- -- 95
2020-03-16 13:00:00 4.8 18 Nordeste 34 Nordeste 0.6 -- -- 96
2020-03-16 12:00:00 4.6 19 Nordeste 32 Nordeste 1.4 -- -- 95
2020-03-16 11:00:00 3.9 18 Nordeste 26 Nordeste 2.2 -- -- 96
2020-03-16 10:00:00 1.5 5 Este 9 Este 1.8 -- -- 100
2020-03-16 09:00:00 0.6 3 Oeste 5 Oeste 0.2 -- -- 100
2020-03-16 08:00:00 0.4 0 Calma 4 Sudeste 0 -- -- 100
2020-03-16 07:00:00 1 5 Sudeste 11 Sudeste 1.4 -- -- 99
2020-03-16 06:00:00 2.3 4 Este 18 Nordeste 1.4 -- -- 97
2020-03-16 05:00:00 2.9 9 Nordeste 18 Nordeste 0 -- -- 97
2020-03-16 04:00:00 2.6 8 Este 16 Este 1.8 -- -- 98
2020-03-16 03:00:00 3.3 9 Este 24 Nordeste 1.2 -- -- 96
2020-03-16 02:00:00 3.8 17 Nordeste 27 Nordeste 1 -- -- 95
2020-03-16 01:00:00 4.7 5 Este 21 Este 0.4 -- -- 94
2020-03-16 00:00:00 5.1 10 Nordeste 16 Nordeste 0 -- -- 94
2020-03-15 23:00:00 5.4 6 Noroeste 24 Norte 0 -- -- 91
2020-03-15 22:00:00 6.6 10 Norte 22 Norte 0.6 -- -- 95
2020-03-15 21:00:00 7.7 12 Norte 27 Nordeste 0 -- -- 95
2020-03-15 20:00:00 8.9 10 Nordeste 43 Este 1.6 -- -- 97
2020-03-15 19:00:00 10.5 9 Norte 35 Sudeste 1.2 -- -- 93
2020-03-15 18:00:00 12 22 Sudeste 36 Este 2.4 -- -- 83
2020-03-15 17:00:00 14.3 21 Este 33 Este 0 -- -- 63
2020-03-15 16:00:00 14.9 19 Este 28 Este 0 -- -- 61
2020-03-15 15:00:00 14.5 19 Este 32 Este 0 -- -- 62
2020-03-15 14:00:00 14.2 17 Este 25 Este 0 -- -- 67
2020-03-15 13:00:00 12.7 14 Este 22 Este 0 -- -- 71
2020-03-15 12:00:00 11.6 13 Sudeste 24 Este 0 -- -- 69
2020-03-15 11:00:00 9.8 12 Sudeste 22 Sudeste 0 -- -- 76
2020-03-15 10:00:00 7.9 8 Sudeste 12 Sudeste 0 -- -- 78
2020-03-15 09:00:00 3.2 0 Calma 7 Sudoeste 0 -- -- 83
2020-03-15 08:00:00 0.2 2 Noroeste 14 Sudoeste 0 -- -- 91
2020-03-15 07:00:00 0.1 2 Sudoeste 13 Sur 0 -- -- 88
2020-03-15 06:00:00 -0.6 3 Sudoeste 9 Sudoeste 0 -- -- 93
2020-03-15 05:00:00 0.3 0 Calma 8 Sudoeste 0 -- -- 89
2020-03-15 04:00:00 1.5 4 Sudoeste 13 Sur 0 -- -- 88
2020-03-15 03:00:00 1.8 8 Sudoeste 14 Sur 0 -- -- 90
2020-03-15 02:00:00 2.3 10 Sur 17 Sur 0 -- -- 90
2020-03-15 01:00:00 2.8 5 Sur 13 Sur 0 -- -- 90
2020-03-15 00:00:00 3.4 4 Sudoeste 13 Sur 0 -- -- 89
2020-03-14 23:00:00 5 10 Sur 14 Sur 0 -- -- 86
2020-03-14 22:00:00 5.7 3 Sudoeste 17 Este 0 -- -- 83
2020-03-14 21:00:00 8.6 13 Sudeste 22 Sudeste 0 -- -- 75
2020-03-14 20:00:00 9.1 14 Sudeste 19 Sudeste 0 -- -- 75
2020-03-14 19:00:00 12.2 8 Sudeste 14 Sudeste 0 -- -- 64
2020-03-14 18:00:00 14.1 8 Nordeste 12 Nordeste 0 -- -- 49
2020-03-14 17:00:00 14.6 5 Nordeste 12 Este 0 -- -- 45
2020-03-14 16:00:00 14.2 5 Nordeste 15 Nordeste 0 -- -- 43
2020-03-14 15:00:00 13.8 5 Nordeste 13 Nordeste 0 -- -- 48
2020-03-14 14:00:00 13 3 Sur 13 Nordeste 0 -- -- 49
2020-03-14 13:00:00 10.8 4 Nordeste 14 Nordeste 0 -- -- 72
2020-03-14 12:00:00 9 6 Este 13 Nordeste 0 -- -- 72
2020-03-14 11:00:00 6.1 6 Norte 9 Nordeste 0 -- -- 88
2020-03-14 10:00:00 4.3 2 Norte 4 Norte 0 -- -- 91
2020-03-14 09:00:00 1.4 0 Calma 2 Sudoeste 0 -- -- 98
2020-03-14 08:00:00 -2.6 3 Sudoeste 4 Sudoeste 0 -- -- 100
2020-03-14 07:00:00 -2.2 0 Calma 4 Sur 0 -- -- 100
2020-03-14 06:00:00 -2.1 0 Calma 2 Sur 0 -- -- 100
2020-03-14 05:00:00 -1.4 0 Calma 9 Sur 0 -- -- 99
2020-03-14 04:00:00 -0.6 4 Sur 12 Sur 0 -- -- 100
2020-03-14 03:00:00 -0.9 0 Calma 5 Oeste 0 -- -- 99
2020-03-14 02:00:00 -0.1 0 Calma 10 Sur 0 -- -- 96
2020-03-14 01:00:00 1.4 7 Sur 9 Sur 0 -- -- 98
2020-03-14 00:00:00 2.1 5 Sudoeste 14 Sudeste 0 -- -- 93
2020-03-13 23:00:00 1.9 5 Sur 9 Sur 0 -- -- 98
2020-03-13 22:00:00 3.1 0 Calma 9 Sudeste 0 -- -- 93
2020-03-13 21:00:00 4.5 8 Este 12 Sudeste 0 -- -- 89
2020-03-13 20:00:00 5.5 9 Este 12 Este 0 -- -- 88
2020-03-13 19:00:00 7.5 6 Este 13 Nordeste 0 -- -- 81
2020-03-13 18:00:00 8.5 10 Nordeste 21 Nordeste 0 -- -- 80
2020-03-13 17:00:00 7.7 16 Nordeste 22 Norte 0 -- -- 84
2020-03-13 16:00:00 8.6 12 Nordeste 22 Este 0 -- -- 83
2020-03-13 15:00:00 9.3 15 Este 27 Este 0 -- -- 81
2020-03-13 14:00:00 8.7 18 Este 27 Nordeste 0 -- -- 88
2020-03-13 13:00:00 8.9 16 Este 26 Nordeste 0 -- -- 85
2020-03-13 12:00:00 8.9 19 Nordeste 28 Este 0 -- -- 84
2020-03-13 11:00:00 8.4 19 Este 28 Este 0 -- -- 86
2020-03-13 10:00:00 7.7 13 Este 22 Este 0 -- -- 90
2020-03-13 09:00:00 7.1 10 Este 21 Este 0 -- -- 92
2020-03-13 08:00:00 6.9 13 Este 26 Nordeste 0 -- -- 92
2020-03-13 07:00:00 7.1 16 Este 25 Este 0 -- -- 91
2020-03-13 06:00:00 7.2 16 Este 27 Este 0 -- -- 93
2020-03-13 05:00:00 7.4 18 Este 26 Este 0 -- -- 92
2020-03-13 04:00:00 7.7 17 Este 28 Este 0 -- -- 91
2020-03-13 03:00:00 7.9 16 Este 24 Este 0 -- -- 92
2020-03-13 02:00:00 8.1 10 Este 15 Nordeste 0 -- -- 91
2020-03-13 01:00:00 8.2 4 Nordeste 13 Nordeste 0 -- -- 93
2020-03-13 00:00:00 8.2 9 Nordeste 16 Nordeste 0 -- -- 94
2020-03-12 23:00:00 8.2 13 Nordeste 22 Nordeste 0 -- -- 95
2020-03-12 22:00:00 9 12 Nordeste 19 Nordeste 0 -- -- 95
2020-03-12 21:00:00 9.1 15 Nordeste 22 Nordeste 0 -- -- 94
2020-03-12 20:00:00 9.4 15 Este 21 Este 0 -- -- 94
2020-03-12 19:00:00 10 15 Nordeste 22 Nordeste 0 -- -- 92
2020-03-12 18:00:00 10.7 14 Nordeste 22 Nordeste 0 -- -- 89
2020-03-12 17:00:00 10.8 13 Nordeste 26 Nordeste 0 -- -- 90
2020-03-12 16:00:00 12.2 14 Nordeste 21 Este 0 -- -- 85
2020-03-12 15:00:00 13.3 12 Nordeste 18 Nordeste 0 -- -- 82
2020-03-12 14:00:00 12.9 8 Nordeste 15 Nordeste 0 -- -- 83
2020-03-12 13:00:00 12.4 6 Nordeste 13 Nordeste 0 -- -- 82
2020-03-12 12:00:00 11.9 8 Nordeste 15 Nordeste 0 -- -- 85
2020-03-12 11:00:00 11.1 9 Nordeste 16 Nordeste 0 -- -- 89
2020-03-12 10:00:00 11 13 Este 17 Este 0 -- -- 89
2020-03-12 09:00:00 8.9 6 Sudeste 21 Este 0 -- -- 94
2020-03-12 08:00:00 7.3 0 Calma 12 Este 0 -- -- 93
2020-03-12 07:00:00 6.7 0 Calma 5 Oeste 0 -- -- 93
2020-03-12 06:00:00 8 0 Calma 4 Oeste 0 -- -- 91
2020-03-12 05:00:00 7.2 0 Calma -- -- 0 -- -- 90
2020-03-12 04:00:00 7 0 Calma -- -- 0 -- -- 90
2020-03-12 03:00:00 8.2 0 Calma 0 Calma 0 -- -- 90
2020-03-12 02:00:00 8.7 0 Calma 7 Sudoeste 0 -- -- 87
2020-03-12 01:00:00 10 0 Calma 4 Oeste 0 -- -- 81
2020-03-12 00:00:00 12.5 0 Calma 10 Sur 0 -- -- 70
2020-03-11 23:00:00 13.5 5 Sur 12 Sur 0 -- -- 64
2020-03-11 22:00:00 12.7 3 Sudoeste 9 Sur 0 -- -- 69
2020-03-11 21:00:00 11.7 0 Calma -- -- 0 -- -- 73
2020-03-11 20:00:00 13.7 0 Calma 5 Sudoeste 0 -- -- 65
2020-03-11 19:00:00 18.9 3 Sudoeste 17 Sudoeste 0 -- -- 49
2020-03-11 18:00:00 21.4 18 Sudoeste 31 Sudoeste 0 -- -- 35
2020-03-11 17:00:00 22.3 16 Oeste 31 Oeste 0 -- -- 31
2020-03-11 16:00:00 22.5 21 Oeste 36 Oeste 0 -- -- 28
2020-03-11 15:00:00 21.5 23 Sudoeste 36 Sudoeste 0 -- -- 31
2020-03-11 14:00:00 20.7 21 Sudoeste 30 Sudoeste 0 -- -- 37
2020-03-11 13:00:00 16.8 8 Norte 12 Norte 0 -- -- 65
2020-03-11 12:00:00 14.1 5 Nordeste 11 Nordeste 0 -- -- 71
2020-03-11 11:00:00 11.8 3 Nordeste 6 Norte 0 -- -- 77
2020-03-11 10:00:00 9.6 0 Calma 9 Sur 0 -- -- 84
2020-03-11 09:00:00 5.8 6 Sur 14 Sudeste 0 -- -- 94
2020-03-11 08:00:00 3 4 Sur 9 Sudoeste 0 -- -- 99
2020-03-11 07:00:00 3.2 3 Oeste 10 Sur 0 -- -- 98
2020-03-11 06:00:00 3.6 3 Sur 11 Sur 0 -- -- 96
2020-03-11 05:00:00 4.3 8 Sudoeste 13 Sur 0 -- -- 95
2020-03-11 04:00:00 5.3 5 Sur 11 Sudoeste 0 -- -- 93
2020-03-11 03:00:00 5.7 5 Sur 8 Sur 0 -- -- 92
2020-03-11 02:00:00 6.6 0 Calma 15 Sur 0 -- -- 88
2020-03-11 01:00:00 7.4 5 Sur 12 Sur 0 -- -- 94
2020-03-11 00:00:00 7.2 2 Oeste 9 Sudoeste 0 -- -- 94
2020-03-10 23:00:00 7.9 0 Calma 14 Sudeste 0 -- -- 87
2020-03-10 22:00:00 11 5 Sur 12 Sudeste 0 -- -- 81
2020-03-10 21:00:00 12 4 Sudeste 8 Sudeste 0 -- -- 77
2020-03-10 20:00:00 11.9 0 Calma 12 Sudoeste 0 -- -- 78
2020-03-10 19:00:00 16.9 8 Sudoeste 26 Sudoeste 0 -- -- 60
2020-03-10 18:00:00 18.5 20 Oeste 33 Sudoeste 0 -- -- 54
2020-03-10 17:00:00 18.8 17 Oeste 30 Oeste 0 -- -- 54
2020-03-10 16:00:00 18.9 14 Oeste 31 Sudoeste 0 -- -- 54
2020-03-10 15:00:00 17.9 20 Oeste 34 Oeste 0 -- -- 52
2020-03-10 14:00:00 16.8 23 Oeste 35 Oeste 0 -- -- 52
2020-03-10 13:00:00 16.1 13 Oeste 27 Oeste 0 -- -- 52
2020-03-10 12:00:00 13.6 6 Norte 13 Norte 0 -- -- 65
2020-03-10 11:00:00 10 5 Norte 9 Norte 0 -- -- 80
2020-03-10 10:00:00 7.2 3 Norte 8 Nordeste 0 -- -- 84
2020-03-10 09:00:00 5.4 4 Nordeste 8 Nordeste 0 -- -- 90
2020-03-10 08:00:00 3.5 4 Nordeste 8 Nordeste 0 -- -- 94
2020-03-10 07:00:00 2.8 0 Calma 4 Nordeste 0 -- -- 96
2020-03-10 06:00:00 2.9 0 Calma 0 Calma 0 -- -- 95
2020-03-10 05:00:00 3.3 0 Calma 9 Sur 0 -- -- 92
2020-03-10 04:00:00 4.1 6 Sur 11 Sur 0 -- -- 88
2020-03-10 03:00:00 4.1 10 Sudoeste 13 Sudoeste 0 -- -- 89
2020-03-10 02:00:00 3.2 2 Sudoeste 12 Sur 0 -- -- 94
2020-03-10 01:00:00 3.6 7 Sur 11 Sur 0 -- -- 92
2020-03-10 00:00:00 3.9 8 Sur 20 Sur 0 -- -- 92
2020-03-09 23:00:00 4.1 8 Sur 14 Sur 0 -- -- 92
2020-03-09 22:00:00 4.4 7 Sudoeste 11 Sur 0 -- -- 91
2020-03-09 21:00:00 5.4 0 Calma 9 Sudeste 0 -- -- 85
2020-03-09 20:00:00 5.9 0 Calma 12 Nordeste 0 -- -- 84
2020-03-09 19:00:00 8 8 Nordeste 17 Nordeste 0 -- -- 78
2020-03-09 18:00:00 9.6 11 Norte 22 Noroeste 0 -- -- 67
2020-03-09 17:00:00 10.1 13 Norte 23 Norte 0 -- -- 64
2020-03-09 16:00:00 10.1 14 Norte 27 Noroeste 0 -- -- 67
2020-03-09 15:00:00 10.3 18 Norte 27 Norte 0 -- -- 61
2020-03-09 14:00:00 10.5 17 Norte 31 Noroeste 0 -- -- 62
2020-03-09 13:00:00 10.4 18 Norte 33 Noroeste 0 -- -- 67
2020-03-09 12:00:00 9.2 14 Noroeste 31 Norte 0 -- -- 65
2020-03-09 11:00:00 9.2 18 Noroeste 31 Norte 0 -- -- 68
2020-03-09 10:00:00 8 9 Noroeste 19 Norte 0 -- -- 79
2020-03-09 09:00:00 6.4 3 Sudoeste 21 Noroeste 0 -- -- 82
2020-03-09 08:00:00 5.8 11 Oeste 20 Noroeste 0 -- -- 80
2020-03-09 07:00:00 5.8 9 Noroeste 14 Noroeste 0 -- -- 82
2020-03-09 06:00:00 5.8 7 Noroeste 19 Norte 0 -- -- 83
2020-03-09 05:00:00 6.2 11 Noroeste 22 Noroeste 0 -- -- 81
2020-03-09 04:00:00 6.3 8 Noroeste 23 Noroeste 0 -- -- 85
2020-03-09 03:00:00 6.7 10 Norte 20 Norte 0 -- -- 87
2020-03-09 02:00:00 7.2 9 Noroeste 22 Noroeste 0 -- -- 85
2020-03-09 01:00:00 7.4 6 Oeste 15 Noroeste 0 -- -- 86
2020-03-09 00:00:00 7.8 8 Noroeste 14 Noroeste 0 -- -- 88